To NAV CANADA Home Page Login to a new session Search on AWWS site Disclaimer Vers la page française équivalente Tips FAQ What's new on the site To the Forecasts and Observations / NOTAM section To "File a Flight Plan" website Publications and other links Update of the User's profile FIC Telephone Numbers My Weather Data Folder Route Weather Data Regional Weather Data Local Weather Data To the Forecasts and Observations / NOTAM section
Request Generated 03/19/2019 at 23:04:51 UTC . Weather information available at that time is displayed.

METAR/TAF

IVUJIVIK/QC    

LWIS CYIK 192300Z AUTO 35009KT M20/M23 A2979=
LWIS CYIK 192200Z AUTO 35016KT M19/M23 A2977=
METAR CYIK 192100Z 34009KT 15SM IC FEW011 FEW017 FEW030 M18/M22 A2974 RMK ST1SC1CU1 ST TR SC TR CU TR SN CVR TR LOOSE LAST STFD OBS/
NEXT 201200UTC SLP079=

*** REMARK        : Forecast period has ended; this was the last TAF issued
*** REMARQUE : La période de prévision est échue; ceci était le dernier TAF qui a été émis
TAF CYIK 191346Z 1914/1921 20007KT 6SM -SN BR OVC025 TEMPO 1914/1917
2SM -SN BR OVC020
FM191700 VRB03KT P6SM BKN050
BECMG 1917/1919 01010KT
FM191900 01010KT P6SM FEW020
RMK NXT FCST WILL BE ISSUED AT 201345Z=
Your time UTC time
Weather data provided by Environment Canada and NAV CANADA